sensor_id;sensor_type;location;lat;lon;timestamp;P1;durP1;ratioP1;P2;durP2;ratioP2
69485;SDS011;56677;51.710;5.366;2022-12-18T07:14:20;10.23;;;5.68;;
69485;SDS011;56677;51.710;5.366;2022-12-18T07:16:45;12.07;;;5.87;;
69485;SDS011;56677;51.710;5.366;2022-12-18T07:19:10;17.55;;;5.53;;
69485;SDS011;56677;51.710;5.366;2022-12-18T07:21:35;9.52;;;5.15;;
69485;SDS011;56677;51.710;5.366;2022-12-18T07:24:00;11.77;;;5.78;;
69485;SDS011;56677;51.710;5.366;2022-12-18T07:26:26;12.07;;;5.45;;
69485;SDS011;56677;51.710;5.366;2022-12-18T07:28:54;8.33;;;4.90;;
69485;SDS011;56677;51.710;5.366;2022-12-18T07:31:20;10.82;;;5.20;;
69485;SDS011;56677;51.710;5.366;2022-12-18T07:33:45;9.50;;;4.85;;
69485;SDS011;56677;51.710;5.366;2022-12-18T07:36:11;8.13;;;4.87;;
69485;SDS011;56677;51.710;5.366;2022-12-18T07:38:36;9.50;;;5.60;;
69485;SDS011;56677;51.710;5.366;2022-12-18T07:41:02;15.30;;;5.20;;
69485;SDS011;56677;51.710;5.366;2022-12-18T07:43:27;11.80;;;5.20;;
69485;SDS011;56677;51.710;5.366;2022-12-18T07:45:53;11.63;;;4.90;;
69485;SDS011;56677;51.710;5.366;2022-12-18T07:48:18;8.20;;;4.70;;
69485;SDS011;56677;51.710;5.366;2022-12-18T07:50:43;9.73;;;5.67;;
69485;SDS011;56677;51.710;5.366;2022-12-18T07:53:08;9.30;;;4.80;;
69485;SDS011;56677;51.710;5.366;2022-12-18T07:55:33;9.57;;;5.30;;
69485;SDS011;56677;51.710;5.366;2022-12-18T07:58:02;8.93;;;5.47;;
69485;SDS011;56677;51.710;5.366;2022-12-18T08:00:27;10.68;;;5.25;;
69485;SDS011;56677;51.710;5.366;2022-12-18T08:02:52;9.00;;;4.93;;
69485;SDS011;56677;51.710;5.366;2022-12-18T08:05:17;9.68;;;5.30;;
69485;SDS011;56677;51.710;5.366;2022-12-18T08:07:42;8.68;;;5.15;;
69485;SDS011;56677;51.710;5.366;2022-12-18T08:10:08;8.95;;;5.60;;
69485;SDS011;56677;51.710;5.366;2022-12-18T08:12:33;8.53;;;5.20;;
69485;SDS011;56677;51.710;5.366;2022-12-18T08:14:58;9.93;;;5.30;;
69485;SDS011;56677;51.710;5.366;2022-12-18T08:17:23;8.10;;;4.70;;
69485;SDS011;56677;51.710;5.366;2022-12-18T08:19:48;10.10;;;5.07;;
69485;SDS011;56677;51.710;5.366;2022-12-18T08:22:13;9.83;;;5.27;;
69485;SDS011;56677;51.710;5.366;2022-12-18T08:24:38;6.75;;;4.60;;
69485;SDS011;56677;51.710;5.366;2022-12-18T08:27:03;10.50;;;5.60;;
69485;SDS011;56677;51.710;5.366;2022-12-18T08:29:29;10.57;;;4.88;;
69485;SDS011;56677;51.710;5.366;2022-12-18T08:31:54;9.02;;;4.57;;
69485;SDS011;56677;51.710;5.366;2022-12-18T08:34:19;7.18;;;4.40;;
69485;SDS011;56677;51.710;5.366;2022-12-18T08:36:44;9.15;;;4.88;;
69485;SDS011;56677;51.710;5.366;2022-12-18T08:39:09;7.60;;;4.22;;
69485;SDS011;56677;51.710;5.366;2022-12-18T08:41:34;10.80;;;4.82;;
69485;SDS011;56677;51.710;5.366;2022-12-18T08:43:59;7.45;;;4.60;;
69485;SDS011;56677;51.710;5.366;2022-12-18T08:46:25;8.30;;;4.17;;
69485;SDS011;56677;51.710;5.366;2022-12-18T08:48:51;8.68;;;4.35;;
69485;SDS011;56677;51.710;5.366;2022-12-18T08:51:16;8.05;;;4.80;;
69485;SDS011;56677;51.710;5.366;2022-12-18T08:53:41;8.40;;;4.13;;
69485;SDS011;56677;51.710;5.366;2022-12-18T08:56:07;8.60;;;4.43;;
69485;SDS011;56677;51.710;5.366;2022-12-18T08:58:32;7.67;;;4.27;;
69485;SDS011;56677;51.710;5.366;2022-12-18T09:01:00;6.70;;;4.22;;
69485;SDS011;56677;51.710;5.366;2022-12-18T09:03:25;8.02;;;4.50;;
69485;SDS011;56677;51.710;5.366;2022-12-18T09:05:51;7.50;;;4.20;;
69485;SDS011;56677;51.710;5.366;2022-12-18T09:08:16;7.30;;;3.95;;
69485;SDS011;56677;51.710;5.366;2022-12-18T09:10:44;7.70;;;4.53;;
69485;SDS011;56677;51.710;5.366;2022-12-18T09:13:10;7.82;;;4.68;;
69485;SDS011;56677;51.710;5.366;2022-12-18T09:15:40;7.50;;;3.92;;
69485;SDS011;56677;51.710;5.366;2022-12-18T09:18:05;8.10;;;4.28;;
69485;SDS011;56677;51.710;5.366;2022-12-18T09:20:30;7.00;;;4.40;;
69485;SDS011;56677;51.710;5.366;2022-12-18T09:22:55;7.97;;;4.13;;
69485;SDS011;56677;51.710;5.366;2022-12-18T09:25:20;8.13;;;4.30;;
69485;SDS011;56677;51.710;5.366;2022-12-18T09:27:46;8.50;;;4.45;;
69485;SDS011;56677;51.710;5.366;2022-12-18T09:30:11;7.87;;;4.50;;
69485;SDS011;56677;51.710;5.366;2022-12-18T09:32:37;9.47;;;4.30;;
69485;SDS011;56677;51.710;5.366;2022-12-18T09:35:02;8.70;;;4.20;;
69485;SDS011;56677;51.710;5.366;2022-12-18T09:37:27;6.90;;;4.00;;
69485;SDS011;56677;51.710;5.366;2022-12-18T09:39:52;6.43;;;4.10;;
69485;SDS011;56677;51.710;5.366;2022-12-18T09:42:21;6.88;;;4.30;;
69485;SDS011;56677;51.710;5.366;2022-12-18T09:44:50;6.63;;;4.60;;
69485;SDS011;56677;51.710;5.366;2022-12-18T09:47:17;6.30;;;4.22;;
69485;SDS011;56677;51.710;5.366;2022-12-18T09:49:45;7.15;;;4.38;;
69485;SDS011;56677;51.710;5.366;2022-12-18T09:52:15;6.93;;;4.10;;
69485;SDS011;56677;51.710;5.366;2022-12-18T09:54:41;6.60;;;4.10;;
69485;SDS011;56677;51.710;5.366;2022-12-18T09:57:09;7.35;;;3.85;;
69485;SDS011;56677;51.710;5.366;2022-12-18T09:59:36;8.32;;;3.95;;
69485;SDS011;56677;51.710;5.366;2022-12-18T10:02:21;6.67;;;3.90;;
69485;SDS011;56677;51.710;5.366;2022-12-18T10:04:50;7.80;;;3.88;;
69485;SDS011;56677;51.710;5.366;2022-12-18T10:07:23;8.15;;;4.18;;
69485;SDS011;56677;51.710;5.366;2022-12-18T10:12:26;7.47;;;3.78;;
69485;SDS011;56677;51.710;5.366;2022-12-18T10:17:45;7.07;;;3.78;;
69485;SDS011;56677;51.710;5.366;2022-12-18T10:20:17;6.65;;;3.80;;
69485;SDS011;56677;51.710;5.366;2022-12-18T10:22:49;7.55;;;4.35;;
69485;SDS011;56677;51.710;5.366;2022-12-18T10:27:40;7.30;;;4.07;;
69485;SDS011;56677;51.710;5.366;2022-12-18T10:30:12;7.45;;;4.10;;
69485;SDS011;56677;51.710;5.366;2022-12-18T10:32:38;7.17;;;3.53;;
69485;SDS011;56677;51.710;5.366;2022-12-18T10:35:04;7.32;;;3.83;;
69485;SDS011;56677;51.710;5.366;2022-12-18T10:37:29;7.17;;;3.87;;
69485;SDS011;56677;51.710;5.366;2022-12-18T10:40:11;6.93;;;3.83;;
69485;SDS011;56677;51.710;5.366;2022-12-18T10:42:36;6.28;;;3.67;;
69485;SDS011;56677;51.710;5.366;2022-12-18T10:45:03;6.60;;;4.10;;
69485;SDS011;56677;51.710;5.366;2022-12-18T10:47:30;7.00;;;3.50;;
69485;SDS011;56677;51.710;5.366;2022-12-18T10:49:55;7.17;;;4.00;;
69485;SDS011;56677;51.710;5.366;2022-12-18T10:52:21;7.17;;;4.00;;
69485;SDS011;56677;51.710;5.366;2022-12-18T10:54:48;7.03;;;3.67;;
69485;SDS011;56677;51.710;5.366;2022-12-18T10:57:29;6.43;;;3.75;;
69485;SDS011;56677;51.710;5.366;2022-12-18T10:59:55;11.20;;;4.00;;
69485;SDS011;56677;51.710;5.366;2022-12-18T11:02:34;7.07;;;3.67;;
69485;SDS011;56677;51.710;5.366;2022-12-18T11:04:59;7.00;;;4.03;;
69485;SDS011;56677;51.710;5.366;2022-12-18T11:07:25;6.07;;;3.45;;
69485;SDS011;56677;51.710;5.366;2022-12-18T11:10:00;6.55;;;3.97;;
69485;SDS011;56677;51.710;5.366;2022-12-18T11:12:25;6.72;;;4.28;;
69485;SDS011;56677;51.710;5.366;2022-12-18T11:14:52;6.63;;;3.90;;
69485;SDS011;56677;51.710;5.366;2022-12-18T11:17:21;6.65;;;3.92;;
69485;SDS011;56677;51.710;5.366;2022-12-18T11:19:55;7.65;;;4.10;;
69485;SDS011;56677;51.710;5.366;2022-12-18T11:22:23;5.63;;;3.38;;
69485;SDS011;56677;51.710;5.366;2022-12-18T11:24:53;7.20;;;3.70;;
69485;SDS011;56677;51.710;5.366;2022-12-18T11:27:19;8.18;;;4.82;;
69485;SDS011;56677;51.710;5.366;2022-12-18T11:29:44;13.20;;;7.63;;
69485;SDS011;56677;51.710;5.366;2022-12-18T11:32:27;14.52;;;9.75;;
69485;SDS011;56677;51.710;5.366;2022-12-18T11:34:59;18.45;;;10.73;;
69485;SDS011;56677;51.710;5.366;2022-12-18T11:37:25;16.15;;;11.52;;
69485;SDS011;56677;51.710;5.366;2022-12-18T11:39:53;19.27;;;12.27;;
69485;SDS011;56677;51.710;5.366;2022-12-18T11:44:55;16.95;;;12.00;;
69485;SDS011;56677;51.710;5.366;2022-12-18T11:47:34;18.20;;;11.63;;
69485;SDS011;56677;51.710;5.366;2022-12-18T11:50:02;20.15;;;11.68;;
69485;SDS011;56677;51.710;5.366;2022-12-18T11:52:33;19.90;;;11.60;;
69485;SDS011;56677;51.710;5.366;2022-12-18T11:55:01;18.75;;;11.98;;
69485;SDS011;56677;51.710;5.366;2022-12-18T12:05:28;16.23;;;10.93;;
69485;SDS011;56677;51.710;5.366;2022-12-18T12:08:06;22.15;;;11.63;;
69485;SDS011;56677;51.710;5.366;2022-12-18T12:15:58;15.32;;;10.70;;
69485;SDS011;56677;51.710;5.366;2022-12-18T12:23:38;16.08;;;9.77;;
69485;SDS011;56677;51.710;5.366;2022-12-18T12:28:56;18.40;;;9.88;;
69485;SDS011;56677;51.710;5.366;2022-12-18T12:31:26;16.50;;;8.60;;
69485;SDS011;56677;51.710;5.366;2022-12-18T12:34:05;15.93;;;8.50;;
69485;SDS011;56677;51.710;5.366;2022-12-18T12:36:57;14.68;;;9.10;;
69485;SDS011;56677;51.710;5.366;2022-12-18T12:39:28;12.32;;;9.00;;
69485;SDS011;56677;51.710;5.366;2022-12-18T12:41:54;14.05;;;9.23;;
69485;SDS011;56677;51.710;5.366;2022-12-18T12:44:24;17.37;;;9.17;;
69485;SDS011;56677;51.710;5.366;2022-12-18T12:46:50;12.40;;;9.17;;
69485;SDS011;56677;51.710;5.366;2022-12-18T12:49:17;13.40;;;9.27;;
69485;SDS011;56677;51.710;5.366;2022-12-18T12:51:44;12.65;;;8.85;;
69485;SDS011;56677;51.710;5.366;2022-12-18T12:54:20;13.23;;;9.63;;
69485;SDS011;56677;51.710;5.366;2022-12-18T12:56:54;13.00;;;9.02;;
69485;SDS011;56677;51.710;5.366;2022-12-18T12:59:23;14.63;;;9.57;;
69485;SDS011;56677;51.710;5.366;2022-12-18T13:04:21;14.55;;;9.95;;
69485;SDS011;56677;51.710;5.366;2022-12-18T13:09:19;16.05;;;10.20;;
69485;SDS011;56677;51.710;5.366;2022-12-18T13:11:45;13.18;;;10.07;;
69485;SDS011;56677;51.710;5.366;2022-12-18T13:14:19;14.10;;;9.57;;
69485;SDS011;56677;51.710;5.366;2022-12-18T13:16:45;12.95;;;10.75;;
69485;SDS011;56677;51.710;5.366;2022-12-18T13:19:18;13.63;;;10.18;;
69485;SDS011;56677;51.710;5.366;2022-12-18T13:21:47;14.82;;;11.10;;
69485;SDS011;56677;51.710;5.366;2022-12-18T13:24:27;18.75;;;11.70;;
69485;SDS011;56677;51.710;5.366;2022-12-18T13:26:53;16.63;;;10.43;;
69485;SDS011;56677;51.710;5.366;2022-12-18T13:32:01;15.17;;;9.10;;
69485;SDS011;56677;51.710;5.366;2022-12-18T13:34:27;20.10;;;9.73;;
69485;SDS011;56677;51.710;5.366;2022-12-18T13:36:53;22.90;;;10.03;;
69485;SDS011;56677;51.710;5.366;2022-12-18T13:41:44;21.05;;;9.85;;
69485;SDS011;56677;51.710;5.366;2022-12-18T13:44:31;15.60;;;9.25;;
69485;SDS011;56677;51.710;5.366;2022-12-18T13:46:56;18.97;;;9.60;;
69485;SDS011;56677;51.710;5.366;2022-12-18T13:49:26;16.10;;;9.23;;
69485;SDS011;56677;51.710;5.366;2022-12-18T13:51:54;17.25;;;8.70;;
69485;SDS011;56677;51.710;5.366;2022-12-18T13:54:36;18.48;;;9.10;;
69485;SDS011;56677;51.710;5.366;2022-12-18T13:57:02;18.20;;;8.93;;
69485;SDS011;56677;51.710;5.366;2022-12-18T13:59:35;22.13;;;8.50;;
69485;SDS011;56677;51.710;5.366;2022-12-18T14:02:04;23.63;;;9.25;;
69485;SDS011;56677;51.710;5.366;2022-12-18T14:04:34;23.50;;;9.05;;
69485;SDS011;56677;51.710;5.366;2022-12-18T14:09:28;23.75;;;8.80;;
69485;SDS011;56677;51.710;5.366;2022-12-18T14:11:53;18.95;;;9.43;;
69485;SDS011;56677;51.710;5.366;2022-12-18T14:14:19;17.73;;;8.50;;
69485;SDS011;56677;51.710;5.366;2022-12-18T14:16:45;19.27;;;8.03;;
69485;SDS011;56677;51.710;5.366;2022-12-18T14:19:12;18.02;;;8.25;;
69485;SDS011;56677;51.710;5.366;2022-12-18T14:21:38;23.53;;;7.80;;
69485;SDS011;56677;51.710;5.366;2022-12-18T14:26:40;18.67;;;8.50;;
69485;SDS011;56677;51.710;5.366;2022-12-18T14:31:46;17.70;;;7.88;;
69485;SDS011;56677;51.710;5.366;2022-12-18T14:34:17;18.42;;;7.53;;
69485;SDS011;56677;51.710;5.366;2022-12-18T14:36:51;22.35;;;7.97;;
69485;SDS011;56677;51.710;5.366;2022-12-18T14:39:16;19.83;;;7.57;;
69485;SDS011;56677;51.710;5.366;2022-12-18T14:41:42;18.30;;;7.32;;
69485;SDS011;56677;51.710;5.366;2022-12-18T14:44:07;17.55;;;7.30;;
69485;SDS011;56677;51.710;5.366;2022-12-18T14:46:36;18.67;;;7.50;;
69485;SDS011;56677;51.710;5.366;2022-12-18T14:49:14;20.48;;;6.93;;
69485;SDS011;56677;51.710;5.366;2022-12-18T14:51:42;15.93;;;7.13;;
69485;SDS011;56677;51.710;5.366;2022-12-18T14:54:14;15.23;;;7.05;;
69485;SDS011;56677;51.710;5.366;2022-12-18T14:59:24;17.27;;;7.43;;
69485;SDS011;56677;51.710;5.366;2022-12-18T15:12:36;15.63;;;6.10;;
69485;SDS011;56677;51.710;5.366;2022-12-18T15:15:02;16.83;;;6.65;;
69485;SDS011;56677;51.710;5.366;2022-12-18T15:17:27;16.48;;;7.10;;
69485;SDS011;56677;51.710;5.366;2022-12-18T15:20:02;12.40;;;6.00;;
69485;SDS011;56677;51.710;5.366;2022-12-18T15:22:29;15.70;;;6.20;;
69485;SDS011;56677;51.710;5.366;2022-12-18T15:24:55;11.33;;;6.30;;
69485;SDS011;56677;51.710;5.366;2022-12-18T15:27:22;11.10;;;5.80;;
69485;SDS011;56677;51.710;5.366;2022-12-18T15:30:00;13.48;;;6.22;;
69485;SDS011;56677;51.710;5.366;2022-12-18T15:32:26;13.60;;;5.97;;
69485;SDS011;56677;51.710;5.366;2022-12-18T15:34:51;11.88;;;5.60;;
69485;SDS011;56677;51.710;5.366;2022-12-18T15:37:26;10.77;;;5.80;;
69485;SDS011;56677;51.710;5.366;2022-12-18T15:39:51;11.52;;;6.28;;
69485;SDS011;56677;51.710;5.366;2022-12-18T15:42:16;16.75;;;6.25;;
69485;SDS011;56677;51.710;5.366;2022-12-18T15:44:41;12.38;;;5.55;;
69485;SDS011;56677;51.710;5.366;2022-12-18T15:47:10;11.07;;;5.70;;
69485;SDS011;56677;51.710;5.366;2022-12-18T15:49:35;13.05;;;5.82;;
69485;SDS011;56677;51.710;5.366;2022-12-18T15:52:01;14.90;;;5.90;;
69485;SDS011;56677;51.710;5.366;2022-12-18T15:54:26;10.30;;;5.13;;
69485;SDS011;56677;51.710;5.366;2022-12-18T15:56:51;14.57;;;5.90;;
69485;SDS011;56677;51.710;5.366;2022-12-18T15:59:17;12.98;;;5.60;;
69485;SDS011;56677;51.710;5.366;2022-12-18T16:01:43;14.95;;;5.68;;
69485;SDS011;56677;51.710;5.366;2022-12-18T16:04:10;14.68;;;5.35;;
69485;SDS011;56677;51.710;5.366;2022-12-18T16:06:36;11.05;;;5.13;;
69485;SDS011;56677;51.710;5.366;2022-12-18T16:09:01;11.27;;;5.60;;
69485;SDS011;56677;51.710;5.366;2022-12-18T16:11:30;14.07;;;5.22;;
69485;SDS011;56677;51.710;5.366;2022-12-18T16:13:55;11.38;;;5.00;;
69485;SDS011;56677;51.710;5.366;2022-12-18T16:16:20;9.13;;;4.88;;
69485;SDS011;56677;51.710;5.366;2022-12-18T16:18:45;12.57;;;4.95;;
69485;SDS011;56677;51.710;5.366;2022-12-18T16:21:10;11.80;;;5.47;;
69485;SDS011;56677;51.710;5.366;2022-12-18T16:23:35;10.88;;;5.05;;
69485;SDS011;56677;51.710;5.366;2022-12-18T16:26:01;9.95;;;4.82;;
69485;SDS011;56677;51.710;5.366;2022-12-18T16:28:26;14.45;;;5.18;;
69485;SDS011;56677;51.710;5.366;2022-12-18T16:30:51;11.63;;;5.20;;
69485;SDS011;56677;51.710;5.366;2022-12-18T16:33:16;12.63;;;4.88;;
69485;SDS011;56677;51.710;5.366;2022-12-18T16:35:41;10.02;;;5.40;;
69485;SDS011;56677;51.710;5.366;2022-12-18T16:38:06;14.48;;;5.57;;
69485;SDS011;56677;51.710;5.366;2022-12-18T16:40:31;13.00;;;5.25;;
69485;SDS011;56677;51.710;5.366;2022-12-18T16:42:57;13.80;;;5.80;;
69485;SDS011;56677;51.710;5.366;2022-12-18T16:45:22;13.52;;;5.50;;
69485;SDS011;56677;51.710;5.366;2022-12-18T16:47:47;15.57;;;5.53;;
69485;SDS011;56677;51.710;5.366;2022-12-18T16:50:12;14.07;;;5.03;;
69485;SDS011;56677;51.710;5.366;2022-12-18T16:52:37;13.98;;;5.10;;
69485;SDS011;56677;51.710;5.366;2022-12-18T16:55:02;12.10;;;5.25;;
69485;SDS011;56677;51.710;5.366;2022-12-18T16:57:28;12.73;;;5.17;;
69485;SDS011;56677;51.710;5.366;2022-12-18T16:59:53;10.00;;;4.87;;
69485;SDS011;56677;51.710;5.366;2022-12-18T17:02:22;11.77;;;5.40;;
69485;SDS011;56677;51.710;5.366;2022-12-18T17:04:47;11.85;;;5.25;;
69485;SDS011;56677;51.710;5.366;2022-12-18T17:07:12;14.40;;;5.32;;
69485;SDS011;56677;51.710;5.366;2022-12-18T17:09:38;13.97;;;5.17;;
69485;SDS011;56677;51.710;5.366;2022-12-18T17:12:03;14.13;;;5.50;;
69485;SDS011;56677;51.710;5.366;2022-12-18T17:14:28;11.67;;;5.43;;
69485;SDS011;56677;51.710;5.366;2022-12-18T17:16:53;10.55;;;4.65;;
69485;SDS011;56677;51.710;5.366;2022-12-18T17:19:18;12.15;;;5.35;;
69485;SDS011;56677;51.710;5.366;2022-12-18T17:21:44;10.47;;;4.80;;
69485;SDS011;56677;51.710;5.366;2022-12-18T17:24:11;11.23;;;5.45;;
69485;SDS011;56677;51.710;5.366;2022-12-18T17:26:36;10.80;;;5.03;;
69485;SDS011;56677;51.710;5.366;2022-12-18T17:29:01;12.65;;;4.85;;
69485;SDS011;56677;51.710;5.366;2022-12-18T17:31:27;12.17;;;4.90;;
69485;SDS011;56677;51.710;5.366;2022-12-18T17:33:53;12.60;;;5.45;;
69485;SDS011;56677;51.710;5.366;2022-12-18T17:36:18;9.75;;;4.80;;
69485;SDS011;56677;51.710;5.366;2022-12-18T17:39:17;8.87;;;4.70;;
69485;SDS011;56677;51.710;5.366;2022-12-18T17:41:35;10.63;;;4.55;;
69485;SDS011;56677;51.710;5.366;2022-12-18T17:44:01;9.90;;;4.43;;
69485;SDS011;56677;51.710;5.366;2022-12-18T17:46:27;12.00;;;5.13;;
69485;SDS011;56677;51.710;5.366;2022-12-18T17:48:59;11.30;;;5.20;;
69485;SDS011;56677;51.710;5.366;2022-12-18T17:51:25;13.90;;;4.72;;
69485;SDS011;56677;51.710;5.366;2022-12-18T17:53:50;10.33;;;4.77;;
69485;SDS011;56677;51.710;5.366;2022-12-18T17:56:17;10.70;;;4.80;;
69485;SDS011;56677;51.710;5.366;2022-12-18T17:58:42;9.00;;;4.55;;
69485;SDS011;56677;51.710;5.366;2022-12-18T18:01:08;14.53;;;4.80;;
69485;SDS011;56677;51.710;5.366;2022-12-18T18:03:34;13.60;;;4.15;;
69485;SDS011;56677;51.710;5.366;2022-12-18T18:06:00;9.50;;;4.18;;
69485;SDS011;56677;51.710;5.366;2022-12-18T18:08:26;13.57;;;4.57;;
69485;SDS011;56677;51.710;5.366;2022-12-18T18:10:51;11.45;;;4.53;;
69485;SDS011;56677;51.710;5.366;2022-12-18T18:13:18;11.17;;;3.73;;
69485;SDS011;56677;51.710;5.366;2022-12-18T18:15:43;10.48;;;4.22;;
69485;SDS011;56677;51.710;5.366;2022-12-18T18:18:08;10.10;;;4.57;;
69485;SDS011;56677;51.710;5.366;2022-12-18T18:20:38;8.87;;;3.90;;
69485;SDS011;56677;51.710;5.366;2022-12-18T18:23:03;9.90;;;4.55;;
69485;SDS011;56677;51.710;5.366;2022-12-18T18:25:28;8.98;;;4.60;;
69485;SDS011;56677;51.710;5.366;2022-12-18T18:27:53;9.82;;;4.25;;
69485;SDS011;56677;51.710;5.366;2022-12-18T18:30:18;7.15;;;3.70;;
69485;SDS011;56677;51.710;5.366;2022-12-18T18:32:43;12.63;;;4.33;;
69485;SDS011;56677;51.710;5.366;2022-12-18T18:35:08;13.47;;;4.23;;
69485;SDS011;56677;51.710;5.366;2022-12-18T18:37:33;8.53;;;4.03;;
69485;SDS011;56677;51.710;5.366;2022-12-18T18:39:59;10.77;;;4.00;;
69485;SDS011;56677;51.710;5.366;2022-12-18T18:42:24;7.50;;;4.43;;
69485;SDS011;56677;51.710;5.366;2022-12-18T18:44:49;8.63;;;4.45;;
69485;SDS011;56677;51.710;5.366;2022-12-18T18:47:14;8.57;;;4.05;;
69485;SDS011;56677;51.710;5.366;2022-12-18T18:49:39;7.55;;;3.97;;
69485;SDS011;56677;51.710;5.366;2022-12-18T18:52:04;10.30;;;4.20;;
69485;SDS011;56677;51.710;5.366;2022-12-18T18:54:29;9.07;;;3.97;;
69485;SDS011;56677;51.710;5.366;2022-12-18T18:56:54;10.02;;;3.70;;
69485;SDS011;56677;51.710;5.366;2022-12-18T18:59:20;7.57;;;3.85;;
69485;SDS011;56677;51.710;5.366;2022-12-18T19:01:45;9.53;;;4.23;;
69485;SDS011;56677;51.710;5.366;2022-12-18T19:04:10;9.90;;;4.30;;
69485;SDS011;56677;51.710;5.366;2022-12-18T19:06:35;8.38;;;4.47;;
69485;SDS011;56677;51.710;5.366;2022-12-18T19:09:01;9.98;;;4.20;;
69485;SDS011;56677;51.710;5.366;2022-12-18T19:11:26;9.07;;;4.07;;
69485;SDS011;56677;51.710;5.366;2022-12-18T19:13:51;8.43;;;4.30;;
69485;SDS011;56677;51.710;5.366;2022-12-18T19:16:17;9.53;;;3.83;;
69485;SDS011;56677;51.710;5.366;2022-12-18T19:18:42;6.80;;;3.88;;
69485;SDS011;56677;51.710;5.366;2022-12-18T19:21:07;10.77;;;3.75;;
69485;SDS011;56677;51.710;5.366;2022-12-18T19:23:32;9.80;;;4.43;;
69485;SDS011;56677;51.710;5.366;2022-12-18T19:26:00;10.10;;;4.32;;
69485;SDS011;56677;51.710;5.366;2022-12-18T19:28:26;8.63;;;4.57;;
69485;SDS011;56677;51.710;5.366;2022-12-18T19:30:51;9.07;;;4.40;;
69485;SDS011;56677;51.710;5.366;2022-12-18T19:33:17;8.43;;;4.60;;
69485;SDS011;56677;51.710;5.366;2022-12-18T19:35:42;10.63;;;4.77;;
69485;SDS011;56677;51.710;5.366;2022-12-18T19:38:07;7.90;;;4.15;;
69485;SDS011;56677;51.710;5.366;2022-12-18T19:40:32;8.18;;;4.03;;
69485;SDS011;56677;51.710;5.366;2022-12-18T19:42:57;9.32;;;4.50;;
69485;SDS011;56677;51.710;5.366;2022-12-18T19:45:22;8.20;;;4.40;;
69485;SDS011;56677;51.710;5.366;2022-12-18T19:47:47;7.25;;;4.13;;
69485;SDS011;56677;51.710;5.366;2022-12-18T19:50:13;8.20;;;4.05;;
69485;SDS011;56677;51.710;5.366;2022-12-18T19:52:38;9.20;;;4.47;;
69485;SDS011;56677;51.710;5.366;2022-12-18T19:55:03;9.10;;;4.25;;
69485;SDS011;56677;51.710;5.366;2022-12-18T19:57:28;8.07;;;4.07;;
69485;SDS011;56677;51.710;5.366;2022-12-18T19:59:53;9.68;;;4.20;;
69485;SDS011;56677;51.710;5.366;2022-12-18T20:02:18;10.55;;;3.90;;
69485;SDS011;56677;51.710;5.366;2022-12-18T20:04:43;8.95;;;4.53;;
69485;SDS011;56677;51.710;5.366;2022-12-18T20:07:09;9.20;;;4.93;;
69485;SDS011;56677;51.710;5.366;2022-12-18T20:09:34;6.53;;;4.03;;
69485;SDS011;56677;51.710;5.366;2022-12-18T20:11:59;9.80;;;4.57;;
69485;SDS011;56677;51.710;5.366;2022-12-18T20:14:24;8.23;;;4.13;;
69485;SDS011;56677;51.710;5.366;2022-12-18T20:16:49;8.37;;;4.77;;
69485;SDS011;56677;51.710;5.366;2022-12-18T20:19:14;9.63;;;4.57;;
69485;SDS011;56677;51.710;5.366;2022-12-18T20:21:40;10.15;;;4.90;;
69485;SDS011;56677;51.710;5.366;2022-12-18T20:24:05;6.83;;;4.10;;
69485;SDS011;56677;51.710;5.366;2022-12-18T20:26:30;7.47;;;4.43;;
69485;SDS011;56677;51.710;5.366;2022-12-18T20:28:55;10.10;;;4.72;;
69485;SDS011;56677;51.710;5.366;2022-12-18T20:31:21;9.13;;;4.97;;
69485;SDS011;56677;51.710;5.366;2022-12-18T20:33:46;7.93;;;4.57;;
69485;SDS011;56677;51.710;5.366;2022-12-18T20:36:12;8.97;;;4.70;;
69485;SDS011;56677;51.710;5.366;2022-12-18T20:38:37;8.23;;;5.00;;
69485;SDS011;56677;51.710;5.366;2022-12-18T20:41:05;8.10;;;5.13;;
69485;SDS011;56677;51.710;5.366;2022-12-18T20:43:30;9.35;;;5.35;;
69485;SDS011;56677;51.710;5.366;2022-12-18T20:45:59;8.75;;;5.75;;
69485;SDS011;56677;51.710;5.366;2022-12-18T20:48:25;9.15;;;5.53;;
69485;SDS011;56677;51.710;5.366;2022-12-18T20:50:59;12.70;;;6.10;;
69485;SDS011;56677;51.710;5.366;2022-12-18T20:53:24;9.77;;;6.38;;
69485;SDS011;56677;51.710;5.366;2022-12-18T20:55:49;9.90;;;6.45;;
69485;SDS011;56677;51.710;5.366;2022-12-18T20:58:14;9.43;;;6.30;;
69485;SDS011;56677;51.710;5.366;2022-12-18T21:00:40;9.65;;;5.72;;
69485;SDS011;56677;51.710;5.366;2022-12-18T21:03:05;9.90;;;5.97;;
69485;SDS011;56677;51.710;5.366;2022-12-18T21:05:30;50.38;;;20.13;;
69485;SDS011;56677;51.710;5.366;2022-12-18T21:07:55;48.55;;;20.70;;
69485;SDS011;56677;51.710;5.366;2022-12-18T21:10:20;41.70;;;17.73;;
69485;SDS011;56677;51.710;5.366;2022-12-18T21:12:45;36.85;;;14.32;;
69485;SDS011;56677;51.710;5.366;2022-12-18T21:15:10;31.95;;;13.02;;
69485;SDS011;56677;51.710;5.366;2022-12-18T21:17:35;27.27;;;12.53;;
69485;SDS011;56677;51.710;5.366;2022-12-18T21:20:00;22.63;;;11.80;;
69485;SDS011;56677;51.710;5.366;2022-12-18T21:22:26;22.20;;;11.30;;
69485;SDS011;56677;51.710;5.366;2022-12-18T21:24:51;24.03;;;10.60;;
69485;SDS011;56677;51.710;5.366;2022-12-18T21:27:17;21.27;;;10.50;;
69485;SDS011;56677;51.710;5.366;2022-12-18T21:29:42;17.60;;;9.67;;
